^^
Saratoga-Weather Station Historical Data
Daily Summary for June 28, 2020 Units:  English    Metric   Both
Daily Weekly Monthly Yearly Custom
  High: Low: Average:
Temperature: 45.7 °F 44.1 °F 44.8 °F
Dew Point: 44.6 °F 43 °F 43.7 °F
Humidity: 96% 95% 96%
Wind Speed: 0.9mph 0mph 0mph
Wind Gust: 3mph - -
Wind- - SW
Pressure: 29.8 in 29.8 in -
Precipitation: 0 in    
Historical Graphs
 
 
Tabular Data for June 28, 2020
Time Temperature Dew Point Pressure Wind Wind Speed Wind Gust Humidity Rainfall Rate (Hourly) solar
00:04 45 °F 43.7 °F 29.8 in Calm     95% 0 in 0 W/m2
00:09 45 °F 43.7 °F 29.8 in Calm     95% 0 in 0 W/m2
00:14 44.8 °F 43.5 °F 29.8 in Calm     95% 0 in 0 W/m2
00:19 45 °F 43.9 °F 29.8 in Calm     96% 0 in 0 W/m2
00:24 45 °F 43.9 °F 29.8 in Calm     96% 0 in 0 W/m2
00:29 45.1 °F 44.1 °F 29.8 in Calm     96% 0 in 0 W/m2
00:34 45.3 °F 44.2 °F 29.8 in Calm     96% 0 in 0 W/m2
00:39 45.5 °F 44.4 °F 29.8 in Calm     96% 0 in 0 W/m2
00:44 45.7 °F 44.6 °F 29.8 in Calm     96% 0 in 0 W/m2
00:49 45.5 °F 44.4 °F 29.8 in Calm     96% 0 in 0 W/m2
00:54 45.5 °F 44.4 °F 29.8 in Calm     96% 0 in 0 W/m2
00:59 45.3 °F 44.2 °F 29.8 in Calm   3 mph 96% 0 in 0 W/m2
01:04 45.3 °F 44.2 °F 29.8 in SW 0.9 mph 2 mph 96% 0 in 0 W/m2
01:09 45.3 °F 44.2 °F 29.8 in Calm     96% 0 in 0 W/m2
01:14 45.3 °F 44.2 °F 29.8 in Calm     96% 0 in 0 W/m2
01:19 45.3 °F 44.2 °F 29.8 in Calm     96% 0 in 0 W/m2
01:24 45.3 °F 44.2 °F 29.8 in Calm     96% 0 in 0 W/m2
01:29 45.3 °F 44.2 °F 29.8 in Calm     96% 0 in 0 W/m2
01:34 45.3 °F 44.2 °F 29.8 in Calm   1 mph 96% 0 in 0 W/m2
01:39 45.1 °F 44.1 °F 29.8 in Calm     96% 0 in 0 W/m2
01:44 45.1 °F 44.1 °F 29.8 in Calm     96% 0 in 0 W/m2
01:49 45.1 °F 44.1 °F 29.8 in Calm     96% 0 in 0 W/m2
01:54 45 °F 43.9 °F 29.8 in Calm     96% 0 in 0 W/m2
01:59 45 °F 43.9 °F 29.8 in Calm     96% 0 in 0 W/m2
02:04 44.8 °F 43.7 °F 29.8 in Calm     96% 0 in 0 W/m2
02:10 44.8 °F 43.7 °F 29.8 in Calm     96% 0 in 0 W/m2
02:15 44.6 °F 43.5 °F 29.8 in Calm     96% 0 in 0 W/m2
02:20 44.4 °F 43.3 °F 29.8 in Calm     96% 0 in 0 W/m2
02:25 44.4 °F 43.3 °F 29.8 in Calm     96% 0 in 0 W/m2
02:30 44.2 °F 43.2 °F 29.8 in Calm     96% 0 in 0 W/m2
02:35 44.1 °F 43 °F 29.8 in Calm     96% 0 in 0 W/m2
02:40 44.1 °F 43 °F 29.8 in Calm     96% 0 in 0 W/m2
02:45 44.1 °F 43 °F 29.8 in Calm     96% 0 in 0 W/m2
02:50 44.1 °F 43 °F 29.8 in Calm     96% 0 in 0 W/m2
02:55 44.1 °F 43 °F 29.8 in Calm     96% 0 in 0 W/m2
03:00 44.2 °F 43.2 °F 29.8 in Calm     96% 0 in 0 W/m2
03:05 44.2 °F 43.2 °F 29.8 in Calm     96% 0 in 0 W/m2
03:10 44.2 °F 43.2 °F 29.8 in Calm     96% 0 in 0 W/m2
03:15 44.4 °F 43.3 °F 29.8 in Calm     96% 0 in 0 W/m2
03:20 44.4 °F 43.3 °F 29.8 in Calm     96% 0 in 0 W/m2
03:25 44.6 °F 43.5 °F 29.8 in Calm     96% 0 in 0 W/m2
03:30 44.6 °F 43.5 °F 29.8 in Calm     96% 0 in 0 W/m2
03:35 44.8 °F 43.7 °F 29.8 in Calm     96% 0 in 0 W/m2
03:40 44.8 °F 43.7 °F 29.8 in Calm     96% 0 in 0 W/m2
03:45 44.8 °F 43.7 °F 29.8 in Calm     96% 0 in 0 W/m2
03:50 44.8 °F 43.7 °F 29.8 in Calm     96% 0 in 0 W/m2
03:55 44.6 °F 43.5 °F 29.8 in Calm     96% 0 in 0 W/m2
04:00 44.6 °F 43.5 °F 29.8 in Calm     96% 0 in 0 W/m2
04:05 44.6 °F 43.5 °F 29.8 in Calm     96% 0 in 0 W/m2
04:10 44.6 °F 43.5 °F 29.8 in Calm     96% 0 in 0 W/m2
04:15 44.6 °F 43.5 °F 29.8 in Calm     96% 0 in 0 W/m2
Juneau County Weather
Compliments of Weather Underground - 2 mb